sensor_id;sensor_type;location;lat;lon;timestamp;P1;durP1;ratioP1;P2;durP2;ratioP2
26253;SDS011;53339;51.378;0.094;2022-11-02T00:02:05;5.03;;;1.88;;
26253;SDS011;53339;51.378;0.094;2022-11-02T00:04:33;4.13;;;1.60;;
26253;SDS011;53339;51.378;0.094;2022-11-02T00:07:00;5.45;;;1.33;;
26253;SDS011;53339;51.378;0.094;2022-11-02T00:09:28;3.85;;;1.67;;
26253;SDS011;53339;51.378;0.094;2022-11-02T00:11:55;2.60;;;1.20;;
26253;SDS011;53339;51.378;0.094;2022-11-02T00:14:23;3.10;;;1.45;;
26253;SDS011;53339;51.378;0.094;2022-11-02T00:16:50;3.25;;;1.17;;
26253;SDS011;53339;51.378;0.094;2022-11-02T00:19:18;2.40;;;1.23;;
26253;SDS011;53339;51.378;0.094;2022-11-02T00:21:45;3.30;;;1.25;;
26253;SDS011;53339;51.378;0.094;2022-11-02T00:24:13;8.30;;;1.20;;
26253;SDS011;53339;51.378;0.094;2022-11-02T00:26:41;2.22;;;1.42;;
26253;SDS011;53339;51.378;0.094;2022-11-02T00:29:08;2.53;;;1.27;;
26253;SDS011;53339;51.378;0.094;2022-11-02T00:31:36;3.70;;;1.65;;
26253;SDS011;53339;51.378;0.094;2022-11-02T00:34:03;3.28;;;1.00;;
26253;SDS011;53339;51.378;0.094;2022-11-02T00:36:31;3.60;;;1.15;;
26253;SDS011;53339;51.378;0.094;2022-11-02T00:38:59;6.10;;;1.63;;
26253;SDS011;53339;51.378;0.094;2022-11-02T00:41:27;2.88;;;1.35;;
26253;SDS011;53339;51.378;0.094;2022-11-02T00:43:54;6.10;;;1.67;;
26253;SDS011;53339;51.378;0.094;2022-11-02T00:46:22;2.88;;;0.90;;
26253;SDS011;53339;51.378;0.094;2022-11-02T00:48:50;1.55;;;1.00;;
26253;SDS011;53339;51.378;0.094;2022-11-02T00:51:18;2.63;;;1.38;;
26253;SDS011;53339;51.378;0.094;2022-11-02T00:53:45;2.35;;;1.25;;
26253;SDS011;53339;51.378;0.094;2022-11-02T00:56:13;2.70;;;0.98;;
26253;SDS011;53339;51.378;0.094;2022-11-02T00:58:40;4.38;;;1.58;;
26253;SDS011;53339;51.378;0.094;2022-11-02T01:01:09;0.95;;;0.85;;
26253;SDS011;53339;51.378;0.094;2022-11-02T01:03:37;4.38;;;1.20;;
26253;SDS011;53339;51.378;0.094;2022-11-02T01:06:06;3.08;;;1.20;;
26253;SDS011;53339;51.378;0.094;2022-11-02T01:08:36;4.47;;;1.52;;
26253;SDS011;53339;51.378;0.094;2022-11-02T01:11:10;1.63;;;1.08;;
26253;SDS011;53339;51.378;0.094;2022-11-02T01:13:45;3.75;;;1.88;;
26253;SDS011;53339;51.378;0.094;2022-11-02T01:16:13;2.10;;;1.38;;
26253;SDS011;53339;51.378;0.094;2022-11-02T01:18:41;3.92;;;1.63;;
26253;SDS011;53339;51.378;0.094;2022-11-02T01:21:09;2.03;;;1.02;;
26253;SDS011;53339;51.378;0.094;2022-11-02T01:23:38;2.40;;;1.20;;
26253;SDS011;53339;51.378;0.094;2022-11-02T01:26:06;2.47;;;1.48;;
26253;SDS011;53339;51.378;0.094;2022-11-02T01:28:35;3.70;;;1.45;;
26253;SDS011;53339;51.378;0.094;2022-11-02T01:31:03;1.88;;;1.40;;
26253;SDS011;53339;51.378;0.094;2022-11-02T01:33:32;2.80;;;1.20;;
26253;SDS011;53339;51.378;0.094;2022-11-02T01:36:03;1.67;;;1.15;;
26253;SDS011;53339;51.378;0.094;2022-11-02T01:38:32;4.50;;;1.80;;
26253;SDS011;53339;51.378;0.094;2022-11-02T01:40:59;2.13;;;1.30;;
26253;SDS011;53339;51.378;0.094;2022-11-02T01:43:28;4.28;;;1.45;;
26253;SDS011;53339;51.378;0.094;2022-11-02T01:46:03;2.20;;;1.42;;
26253;SDS011;53339;51.378;0.094;2022-11-02T01:48:41;4.55;;;0.90;;
26253;SDS011;53339;51.378;0.094;2022-11-02T01:51:13;2.15;;;1.92;;
26253;SDS011;53339;51.378;0.094;2022-11-02T01:53:48;2.42;;;1.00;;
26253;SDS011;53339;51.378;0.094;2022-11-02T01:56:18;6.85;;;2.05;;
26253;SDS011;53339;51.378;0.094;2022-11-02T01:58:52;5.22;;;1.50;;
26253;SDS011;53339;51.378;0.094;2022-11-02T02:01:24;5.07;;;1.45;;
26253;SDS011;53339;51.378;0.094;2022-11-02T02:03:52;1.30;;;1.10;;
26253;SDS011;53339;51.378;0.094;2022-11-02T02:06:22;4.20;;;1.23;;
26253;SDS011;53339;51.378;0.094;2022-11-02T02:08:52;4.10;;;1.27;;
26253;SDS011;53339;51.378;0.094;2022-11-02T02:11:29;7.13;;;1.17;;
26253;SDS011;53339;51.378;0.094;2022-11-02T02:28:19;2.90;;;1.45;;
26253;SDS011;53339;51.378;0.094;2022-11-02T02:39:50;3.47;;;2.28;;
26253;SDS011;53339;51.378;0.094;2022-11-02T02:42:39;3.63;;;1.45;;
26253;SDS011;53339;51.378;0.094;2022-11-02T02:45:15;2.28;;;1.23;;
26253;SDS011;53339;51.378;0.094;2022-11-02T02:47:51;2.70;;;1.45;;
26253;SDS011;53339;51.378;0.094;2022-11-02T02:50:27;6.18;;;1.60;;
26253;SDS011;53339;51.378;0.094;2022-11-02T02:52:58;9.23;;;2.63;;
26253;SDS011;53339;51.378;0.094;2022-11-02T02:55:31;3.70;;;1.55;;
26253;SDS011;53339;51.378;0.094;2022-11-02T02:58:04;5.15;;;2.03;;
26253;SDS011;53339;51.378;0.094;2022-11-02T03:00:36;5.53;;;1.67;;
26253;SDS011;53339;51.378;0.094;2022-11-02T03:03:12;2.97;;;1.58;;
26253;SDS011;53339;51.378;0.094;2022-11-02T03:05:54;3.67;;;1.63;;
26253;SDS011;53339;51.378;0.094;2022-11-02T03:08:30;4.30;;;1.08;;
26253;SDS011;53339;51.378;0.094;2022-11-02T03:11:06;5.80;;;1.40;;
26253;SDS011;53339;51.378;0.094;2022-11-02T03:17:02;2.33;;;1.25;;
26253;SDS011;53339;51.378;0.094;2022-11-02T03:24:58;3.78;;;1.63;;
26253;SDS011;53339;51.378;0.094;2022-11-02T03:30:41;3.70;;;1.80;;
26253;SDS011;53339;51.378;0.094;2022-11-02T03:33:21;2.63;;;1.27;;
26253;SDS011;53339;51.378;0.094;2022-11-02T03:41:01;5.90;;;2.17;;
26253;SDS011;53339;51.378;0.094;2022-11-02T03:43:31;5.22;;;1.58;;
26253;SDS011;53339;51.378;0.094;2022-11-02T03:46:02;4.30;;;1.60;;
26253;SDS011;53339;51.378;0.094;2022-11-02T03:51:04;5.18;;;1.10;;
26253;SDS011;53339;51.378;0.094;2022-11-02T03:53:45;5.95;;;0.85;;
26253;SDS011;53339;51.378;0.094;2022-11-02T03:56:18;4.28;;;1.40;;
26253;SDS011;53339;51.378;0.094;2022-11-02T03:58:52;4.63;;;1.50;;
26253;SDS011;53339;51.378;0.094;2022-11-02T04:01:19;7.95;;;2.45;;
26253;SDS011;53339;51.378;0.094;2022-11-02T04:03:48;4.53;;;0.90;;
26253;SDS011;53339;51.378;0.094;2022-11-02T04:06:17;5.97;;;1.38;;
26253;SDS011;53339;51.378;0.094;2022-11-02T04:08:45;5.13;;;1.92;;
26253;SDS011;53339;51.378;0.094;2022-11-02T04:11:17;2.50;;;1.98;;
26253;SDS011;53339;51.378;0.094;2022-11-02T04:14:07;9.10;;;2.17;;
26253;SDS011;53339;51.378;0.094;2022-11-02T04:16:56;5.47;;;1.48;;
26253;SDS011;53339;51.378;0.094;2022-11-02T04:19:48;6.32;;;1.63;;
26253;SDS011;53339;51.378;0.094;2022-11-02T04:22:16;9.27;;;1.65;;
26253;SDS011;53339;51.378;0.094;2022-11-02T04:25:10;5.97;;;2.15;;
26253;SDS011;53339;51.378;0.094;2022-11-02T04:27:55;7.38;;;1.88;;
26253;SDS011;53339;51.378;0.094;2022-11-02T04:30:28;5.07;;;1.27;;
26253;SDS011;53339;51.378;0.094;2022-11-02T04:32:58;7.55;;;1.77;;
26253;SDS011;53339;51.378;0.094;2022-11-02T04:35:53;8.48;;;3.85;;
26253;SDS011;53339;51.378;0.094;2022-11-02T04:38:21;7.75;;;1.73;;
26253;SDS011;53339;51.378;0.094;2022-11-02T04:41:27;7.28;;;2.00;;
26253;SDS011;53339;51.378;0.094;2022-11-02T04:44:18;4.43;;;2.05;;
26253;SDS011;53339;51.378;0.094;2022-11-02T04:46:54;5.75;;;1.13;;
26253;SDS011;53339;51.378;0.094;2022-11-02T04:49:25;6.38;;;2.50;;
26253;SDS011;53339;51.378;0.094;2022-11-02T04:51:53;5.25;;;1.20;;
26253;SDS011;53339;51.378;0.094;2022-11-02T04:54:21;8.00;;;1.85;;
26253;SDS011;53339;51.378;0.094;2022-11-02T04:56:54;5.15;;;1.73;;
26253;SDS011;53339;51.378;0.094;2022-11-02T04:59:24;6.07;;;2.05;;
26253;SDS011;53339;51.378;0.094;2022-11-02T05:01:52;4.40;;;1.67;;
26253;SDS011;53339;51.378;0.094;2022-11-02T05:04:20;7.25;;;1.83;;
26253;SDS011;53339;51.378;0.094;2022-11-02T05:06:48;4.55;;;1.15;;
26253;SDS011;53339;51.378;0.094;2022-11-02T05:09:17;7.40;;;1.60;;
26253;SDS011;53339;51.378;0.094;2022-11-02T05:11:47;6.50;;;1.35;;
26253;SDS011;53339;51.378;0.094;2022-11-02T05:14:15;4.88;;;2.47;;
26253;SDS011;53339;51.378;0.094;2022-11-02T05:16:43;6.72;;;1.02;;
26253;SDS011;53339;51.378;0.094;2022-11-02T05:19:12;4.43;;;1.65;;
26253;SDS011;53339;51.378;0.094;2022-11-02T05:21:40;9.57;;;2.03;;
26253;SDS011;53339;51.378;0.094;2022-11-02T05:24:07;7.10;;;1.77;;
26253;SDS011;53339;51.378;0.094;2022-11-02T05:26:35;9.10;;;2.33;;
26253;SDS011;53339;51.378;0.094;2022-11-02T05:29:04;10.20;;;2.38;;
26253;SDS011;53339;51.378;0.094;2022-11-02T05:31:33;7.53;;;2.55;;
26253;SDS011;53339;51.378;0.094;2022-11-02T05:34:00;5.22;;;1.38;;
26253;SDS011;53339;51.378;0.094;2022-11-02T05:36:28;5.82;;;1.52;;
26253;SDS011;53339;51.378;0.094;2022-11-02T05:38:56;1.98;;;1.20;;
26253;SDS011;53339;51.378;0.094;2022-11-02T05:41:25;6.82;;;1.65;;
26253;SDS011;53339;51.378;0.094;2022-11-02T05:43:54;10.02;;;1.95;;
26253;SDS011;53339;51.378;0.094;2022-11-02T05:46:24;7.00;;;2.53;;
26253;SDS011;53339;51.378;0.094;2022-11-02T05:48:52;4.00;;;1.50;;
26253;SDS011;53339;51.378;0.094;2022-11-02T05:51:19;6.65;;;1.65;;
26253;SDS011;53339;51.378;0.094;2022-11-02T05:53:47;7.10;;;1.10;;
26253;SDS011;53339;51.378;0.094;2022-11-02T05:56:14;4.40;;;1.48;;
26253;SDS011;53339;51.378;0.094;2022-11-02T05:58:46;7.65;;;2.10;;
26253;SDS011;53339;51.378;0.094;2022-11-02T06:01:13;5.63;;;1.85;;
26253;SDS011;53339;51.378;0.094;2022-11-02T06:03:41;5.32;;;1.60;;
26253;SDS011;53339;51.378;0.094;2022-11-02T06:06:09;5.03;;;1.45;;
26253;SDS011;53339;51.378;0.094;2022-11-02T06:08:37;5.78;;;1.10;;
26253;SDS011;53339;51.378;0.094;2022-11-02T06:11:05;4.00;;;1.27;;
26253;SDS011;53339;51.378;0.094;2022-11-02T06:13:34;7.22;;;1.92;;
26253;SDS011;53339;51.378;0.094;2022-11-02T06:16:02;10.38;;;1.40;;
26253;SDS011;53339;51.378;0.094;2022-11-02T06:18:31;2.63;;;1.55;;
26253;SDS011;53339;51.378;0.094;2022-11-02T06:20:59;4.88;;;1.60;;
26253;SDS011;53339;51.378;0.094;2022-11-02T06:23:26;8.60;;;1.35;;
26253;SDS011;53339;51.378;0.094;2022-11-02T06:25:55;8.50;;;2.45;;
26253;SDS011;53339;51.378;0.094;2022-11-02T06:28:24;5.75;;;1.33;;
26253;SDS011;53339;51.378;0.094;2022-11-02T06:30:53;9.85;;;2.50;;
26253;SDS011;53339;51.378;0.094;2022-11-02T06:33:20;8.77;;;1.73;;
26253;SDS011;53339;51.378;0.094;2022-11-02T06:35:50;7.32;;;1.60;;
26253;SDS011;53339;51.378;0.094;2022-11-02T06:38:19;6.05;;;1.00;;
26253;SDS011;53339;51.378;0.094;2022-11-02T06:40:56;4.38;;;1.23;;
26253;SDS011;53339;51.378;0.094;2022-11-02T06:43:33;11.30;;;2.40;;
26253;SDS011;53339;51.378;0.094;2022-11-02T06:46:04;7.20;;;1.60;;
26253;SDS011;53339;51.378;0.094;2022-11-02T06:48:32;6.60;;;1.73;;
26253;SDS011;53339;51.378;0.094;2022-11-02T06:51:02;7.90;;;1.50;;
26253;SDS011;53339;51.378;0.094;2022-11-02T06:53:30;3.90;;;0.93;;
26253;SDS011;53339;51.378;0.094;2022-11-02T06:55:58;5.68;;;1.77;;
26253;SDS011;53339;51.378;0.094;2022-11-02T06:58:26;12.07;;;1.70;;
26253;SDS011;53339;51.378;0.094;2022-11-02T07:00:58;5.60;;;1.20;;
26253;SDS011;53339;51.378;0.094;2022-11-02T07:03:27;8.07;;;1.35;;
26253;SDS011;53339;51.378;0.094;2022-11-02T07:05:55;9.77;;;2.70;;
26253;SDS011;53339;51.378;0.094;2022-11-02T07:08:23;7.00;;;1.75;;
26253;SDS011;53339;51.378;0.094;2022-11-02T07:10:51;5.30;;;1.63;;
26253;SDS011;53339;51.378;0.094;2022-11-02T07:13:18;9.18;;;2.08;;
26253;SDS011;53339;51.378;0.094;2022-11-02T07:15:46;7.32;;;1.45;;
26253;SDS011;53339;51.378;0.094;2022-11-02T07:18:16;7.80;;;2.50;;
26253;SDS011;53339;51.378;0.094;2022-11-02T07:20:44;9.68;;;1.70;;
26253;SDS011;53339;51.378;0.094;2022-11-02T07:23:11;9.85;;;1.77;;
26253;SDS011;53339;51.378;0.094;2022-11-02T07:25:39;8.65;;;1.92;;
26253;SDS011;53339;51.378;0.094;2022-11-02T07:28:07;9.82;;;2.33;;
26253;SDS011;53339;51.378;0.094;2022-11-02T07:30:35;6.22;;;1.50;;
26253;SDS011;53339;51.378;0.094;2022-11-02T07:33:02;6.82;;;1.92;;
26253;SDS011;53339;51.378;0.094;2022-11-02T07:35:30;7.70;;;1.42;;
26253;SDS011;53339;51.378;0.094;2022-11-02T07:38:00;5.43;;;1.73;;
26253;SDS011;53339;51.378;0.094;2022-11-02T07:40:33;7.40;;;2.20;;
26253;SDS011;53339;51.378;0.094;2022-11-02T07:43:02;9.18;;;1.40;;
26253;SDS011;53339;51.378;0.094;2022-11-02T07:45:50;5.82;;;1.60;;
26253;SDS011;53339;51.378;0.094;2022-11-02T07:48:17;12.57;;;2.50;;
26253;SDS011;53339;51.378;0.094;2022-11-02T07:50:45;6.43;;;1.52;;
26253;SDS011;53339;51.378;0.094;2022-11-02T07:53:13;7.43;;;1.73;;
26253;SDS011;53339;51.378;0.094;2022-11-02T07:55:40;9.98;;;1.48;;
26253;SDS011;53339;51.378;0.094;2022-11-02T07:58:09;12.93;;;2.33;;
26253;SDS011;53339;51.378;0.094;2022-11-02T08:00:39;11.75;;;2.17;;
26253;SDS011;53339;51.378;0.094;2022-11-02T08:03:08;9.65;;;1.92;;
26253;SDS011;53339;51.378;0.094;2022-11-02T08:05:38;6.95;;;2.10;;
26253;SDS011;53339;51.378;0.094;2022-11-02T08:08:09;9.50;;;2.17;;
26253;SDS011;53339;51.378;0.094;2022-11-02T08:10:37;8.52;;;2.05;;
26253;SDS011;53339;51.378;0.094;2022-11-02T08:13:07;15.13;;;2.65;;
26253;SDS011;53339;51.378;0.094;2022-11-02T08:15:36;8.88;;;1.35;;
26253;SDS011;53339;51.378;0.094;2022-11-02T08:20:33;7.22;;;1.42;;
26253;SDS011;53339;51.378;0.094;2022-11-02T08:23:02;8.27;;;2.42;;
26253;SDS011;53339;51.378;0.094;2022-11-02T08:25:30;6.55;;;1.83;;
26253;SDS011;53339;51.378;0.094;2022-11-02T08:27:58;8.30;;;1.63;;
26253;SDS011;53339;51.378;0.094;2022-11-02T08:30:27;12.50;;;1.63;;
26253;SDS011;53339;51.378;0.094;2022-11-02T08:33:01;9.80;;;1.95;;
26253;SDS011;53339;51.378;0.094;2022-11-02T08:35:33;9.30;;;1.80;;
26253;SDS011;53339;51.378;0.094;2022-11-02T08:40:31;10.25;;;1.88;;
26253;SDS011;53339;51.378;0.094;2022-11-02T08:42:59;6.10;;;1.73;;
26253;SDS011;53339;51.378;0.094;2022-11-02T08:45:29;9.50;;;1.98;;
26253;SDS011;53339;51.378;0.094;2022-11-02T08:48:17;17.05;;;2.70;;
26253;SDS011;53339;51.378;0.094;2022-11-02T08:50:44;19.17;;;2.80;;
26253;SDS011;53339;51.378;0.094;2022-11-02T08:55:42;9.02;;;1.98;;
26253;SDS011;53339;51.378;0.094;2022-11-02T08:58:10;6.97;;;1.50;;
26253;SDS011;53339;51.378;0.094;2022-11-02T09:00:37;8.48;;;1.45;;
26253;SDS011;53339;51.378;0.094;2022-11-02T09:03:09;6.63;;;1.60;;
26253;SDS011;53339;51.378;0.094;2022-11-02T09:05:39;4.35;;;1.92;;
26253;SDS011;53339;51.378;0.094;2022-11-02T09:10:49;8.40;;;1.67;;
26253;SDS011;53339;51.378;0.094;2022-11-02T09:13:19;5.45;;;1.45;;
26253;SDS011;53339;51.378;0.094;2022-11-02T09:15:52;9.75;;;1.85;;
26253;SDS011;53339;51.378;0.094;2022-11-02T09:18:21;9.65;;;2.05;;
26253;SDS011;53339;51.378;0.094;2022-11-02T09:20:49;10.52;;;2.80;;
26253;SDS011;53339;51.378;0.094;2022-11-02T09:23:18;9.75;;;2.20;;
26253;SDS011;53339;51.378;0.094;2022-11-02T09:25:47;8.77;;;2.47;;
26253;SDS011;53339;51.378;0.094;2022-11-02T09:28:15;10.02;;;1.90;;
26253;SDS011;53339;51.378;0.094;2022-11-02T09:30:43;12.10;;;2.88;;
26253;SDS011;53339;51.378;0.094;2022-11-02T09:33:11;7.45;;;1.70;;
26253;SDS011;53339;51.378;0.094;2022-11-02T09:35:40;10.98;;;1.63;;
26253;SDS011;53339;51.378;0.094;2022-11-02T09:38:10;8.57;;;2.47;;
26253;SDS011;53339;51.378;0.094;2022-11-02T09:40:40;6.47;;;1.33;;
26253;SDS011;53339;51.378;0.094;2022-11-02T09:49:03;6.70;;;1.42;;
26253;SDS011;53339;51.378;0.094;2022-11-02T09:54:17;8.85;;;1.95;;
26253;SDS011;53339;51.378;0.094;2022-11-02T09:56:46;13.85;;;2.55;;
26253;SDS011;53339;51.378;0.094;2022-11-02T09:59:19;13.50;;;1.92;;
26253;SDS011;53339;51.378;0.094;2022-11-02T10:01:58;13.15;;;2.25;;
26253;SDS011;53339;51.378;0.094;2022-11-02T10:10:04;9.95;;;1.88;;
26253;SDS011;53339;51.378;0.094;2022-11-02T10:15:45;6.32;;;1.40;;
26253;SDS011;53339;51.378;0.094;2022-11-02T10:18:19;3.67;;;1.05;;
26253;SDS011;53339;51.378;0.094;2022-11-02T10:20:55;4.75;;;1.33;;
26253;SDS011;53339;51.378;0.094;2022-11-02T10:25:58;10.15;;;1.95;;
26253;SDS011;53339;51.378;0.094;2022-11-02T10:28:30;9.10;;;2.40;;
26253;SDS011;53339;51.378;0.094;2022-11-02T10:31:02;9.00;;;1.83;;
26253;SDS011;53339;51.378;0.094;2022-11-02T10:33:42;12.05;;;1.83;;
26253;SDS011;53339;51.378;0.094;2022-11-02T10:36:16;10.23;;;2.03;;
26253;SDS011;53339;51.378;0.094;2022-11-02T10:39:09;7.22;;;1.40;;
26253;SDS011;53339;51.378;0.094;2022-11-02T10:41:59;8.63;;;2.00;;
26253;SDS011;53339;51.378;0.094;2022-11-02T10:47:32;7.53;;;1.63;;
26253;SDS011;53339;51.378;0.094;2022-11-02T10:52:40;10.30;;;2.40;;
26253;SDS011;53339;51.378;0.094;2022-11-02T10:55:12;11.77;;;2.15;;
26253;SDS011;53339;51.378;0.094;2022-11-02T10:57:49;12.27;;;2.03;;
26253;SDS011;53339;51.378;0.094;2022-11-02T11:00:22;13.02;;;1.83;;
26253;SDS011;53339;51.378;0.094;2022-11-02T11:08:50;6.40;;;1.63;;
26253;SDS011;53339;51.378;0.094;2022-11-02T11:13:42;7.47;;;1.73;;
26253;SDS011;53339;51.378;0.094;2022-11-02T11:17:01;9.23;;;1.95;;
26253;SDS011;53339;51.378;0.094;2022-11-02T11:19:59;10.77;;;2.40;;
26253;SDS011;53339;51.378;0.094;2022-11-02T11:22:34;10.30;;;2.33;;
26253;SDS011;53339;51.378;0.094;2022-11-02T11:27:57;13.07;;;2.72;;
26253;SDS011;53339;51.378;0.094;2022-11-02T11:30:35;8.02;;;2.63;;
26253;SDS011;53339;51.378;0.094;2022-11-02T11:33:25;14.05;;;2.72;;
26253;SDS011;53339;51.378;0.094;2022-11-02T11:35:52;4.75;;;1.35;;
26253;SDS011;53339;51.378;0.094;2022-11-02T11:38:21;6.13;;;1.42;;
26253;SDS011;53339;51.378;0.094;2022-11-02T11:40:53;9.77;;;1.70;;
26253;SDS011;53339;51.378;0.094;2022-11-02T11:43:24;8.73;;;1.90;;
26253;SDS011;53339;51.378;0.094;2022-11-02T11:45:58;7.60;;;1.75;;
26253;SDS011;53339;51.378;0.094;2022-11-02T11:48:37;13.95;;;2.28;;
26253;SDS011;53339;51.378;0.094;2022-11-02T11:51:26;6.13;;;1.50;;
26253;SDS011;53339;51.378;0.094;2022-11-02T11:56:49;9.52;;;2.35;;
26253;SDS011;53339;51.378;0.094;2022-11-02T11:59:22;16.95;;;2.58;;
26253;SDS011;53339;51.378;0.094;2022-11-02T12:01:56;9.20;;;2.03;;
26253;SDS011;53339;51.378;0.094;2022-11-02T12:04:30;11.23;;;2.03;;
26253;SDS011;53339;51.378;0.094;2022-11-02T12:09:54;12.38;;;1.83;;
26253;SDS011;53339;51.378;0.094;2022-11-02T12:21:08;7.00;;;1.20;;
26253;SDS011;53339;51.378;0.094;2022-11-02T12:26:50;12.98;;;1.80;;
26253;SDS011;53339;51.378;0.094;2022-11-02T12:38:13;8.63;;;1.73;;
26253;SDS011;53339;51.378;0.094;2022-11-02T12:40:44;10.90;;;1.75;;
26253;SDS011;53339;51.378;0.094;2022-11-02T12:43:41;13.48;;;2.80;;
26253;SDS011;53339;51.378;0.094;2022-11-02T12:46:27;8.38;;;1.83;;
26253;SDS011;53339;51.378;0.094;2022-11-02T12:55:04;9.70;;;2.08;;
26253;SDS011;53339;51.378;0.094;2022-11-02T12:57:42;9.85;;;1.90;;
26253;SDS011;53339;51.378;0.094;2022-11-02T13:00:18;14.32;;;2.33;;
26253;SDS011;53339;51.378;0.094;2022-11-02T13:05:40;17.35;;;2.50;;
26253;SDS011;53339;51.378;0.094;2022-11-02T13:08:21;14.38;;;2.38;;
26253;SDS011;53339;51.378;0.094;2022-11-02T13:11:03;14.38;;;2.10;;
26253;SDS011;53339;51.378;0.094;2022-11-02T13:13:37;15.15;;;2.30;;
26253;SDS011;53339;51.378;0.094;2022-11-02T13:16:09;9.07;;;1.92;;
26253;SDS011;53339;51.378;0.094;2022-11-02T13:18:57;7.97;;;1.65;;
26253;SDS011;53339;51.378;0.094;2022-11-02T13:21:36;8.02;;;2.10;;
26253;SDS011;53339;51.378;0.094;2022-11-02T13:24:12;11.90;;;2.55;;
26253;SDS011;53339;51.378;0.094;2022-11-02T13:26:44;10.02;;;1.92;;
26253;SDS011;53339;51.378;0.094;2022-11-02T13:32:16;11.07;;;2.15;;
26253;SDS011;53339;51.378;0.094;2022-11-02T13:35:01;6.85;;;1.35;;
26253;SDS011;53339;51.378;0.094;2022-11-02T13:37:40;7.55;;;2.45;;
26253;SDS011;53339;51.378;0.094;2022-11-02T13:40:30;7.43;;;1.73;;
26253;SDS011;53339;51.378;0.094;2022-11-02T13:48:53;12.30;;;2.45;;
26253;SDS011;53339;51.378;0.094;2022-11-02T13:51:52;15.40;;;2.28;;
26253;SDS011;53339;51.378;0.094;2022-11-02T13:54:31;9.52;;;2.13;;
26253;SDS011;53339;51.378;0.094;2022-11-02T13:57:13;13.18;;;2.70;;
26253;SDS011;53339;51.378;0.094;2022-11-02T13:59:50;9.25;;;1.73;;
26253;SDS011;53339;51.378;0.094;2022-11-02T14:02:17;5.22;;;1.45;;
26253;SDS011;53339;51.378;0.094;2022-11-02T14:04:47;10.63;;;1.98;;
26253;SDS011;53339;51.378;0.094;2022-11-02T14:07:28;12.52;;;2.58;;
26253;SDS011;53339;51.378;0.094;2022-11-02T14:10:07;9.30;;;1.65;;
26253;SDS011;53339;51.378;0.094;2022-11-02T14:12:44;13.00;;;2.17;;
26253;SDS011;53339;51.378;0.094;2022-11-02T14:20:30;11.45;;;2.22;;
26253;SDS011;53339;51.378;0.094;2022-11-02T14:45:21;13.60;;;2.17;;
26253;SDS011;53339;51.378;0.094;2022-11-02T14:47:58;9.20;;;2.03;;
26253;SDS011;53339;51.378;0.094;2022-11-02T14:50:28;21.02;;;3.67;;
26253;SDS011;53339;51.378;0.094;2022-11-02T14:55:50;13.35;;;2.08;;
26253;SDS011;53339;51.378;0.094;2022-11-02T14:58:21;19.20;;;3.20;;
26253;SDS011;53339;51.378;0.094;2022-11-02T15:00:58;11.40;;;2.65;;
26253;SDS011;53339;51.378;0.094;2022-11-02T15:06:12;10.77;;;2.63;;
26253;SDS011;53339;51.378;0.094;2022-11-02T15:14:30;10.07;;;2.38;;
26253;SDS011;53339;51.378;0.094;2022-11-02T15:27:31;11.77;;;2.38;;
26253;SDS011;53339;51.378;0.094;2022-11-02T15:30:05;10.00;;;2.38;;
26253;SDS011;53339;51.378;0.094;2022-11-02T15:32:40;9.27;;;1.77;;
26253;SDS011;53339;51.378;0.094;2022-11-02T15:35:16;14.20;;;2.45;;
26253;SDS011;53339;51.378;0.094;2022-11-02T15:37:48;12.52;;;3.00;;
26253;SDS011;53339;51.378;0.094;2022-11-02T15:43:42;9.60;;;2.67;;
26253;SDS011;53339;51.378;0.094;2022-11-02T15:46:21;13.35;;;2.33;;
26253;SDS011;53339;51.378;0.094;2022-11-02T15:54:11;11.50;;;2.15;;
26253;SDS011;53339;51.378;0.094;2022-11-02T15:56:58;9.70;;;1.95;;
26253;SDS011;53339;51.378;0.094;2022-11-02T16:02:38;8.50;;;1.80;;
26253;SDS011;53339;51.378;0.094;2022-11-02T16:05:16;7.25;;;2.00;;
26253;SDS011;53339;51.378;0.094;2022-11-02T16:07:47;12.25;;;2.28;;
26253;SDS011;53339;51.378;0.094;2022-11-02T16:15:34;14.55;;;2.90;;
26253;SDS011;53339;51.378;0.094;2022-11-02T16:18:01;10.15;;;1.92;;
26253;SDS011;53339;51.378;0.094;2022-11-02T16:20:29;11.40;;;2.28;;
26253;SDS011;53339;51.378;0.094;2022-11-02T16:23:02;12.63;;;2.17;;
26253;SDS011;53339;51.378;0.094;2022-11-02T16:28:10;9.63;;;2.35;;
26253;SDS011;53339;51.378;0.094;2022-11-02T16:33:26;11.90;;;2.58;;
26253;SDS011;53339;51.378;0.094;2022-11-02T16:35:58;10.55;;;2.33;;
26253;SDS011;53339;51.378;0.094;2022-11-02T16:38:26;16.13;;;2.05;;
26253;SDS011;53339;51.378;0.094;2022-11-02T16:40:54;11.50;;;2.28;;
26253;SDS011;53339;51.378;0.094;2022-11-02T16:43:22;12.68;;;2.45;;
26253;SDS011;53339;51.378;0.094;2022-11-02T16:45:57;10.20;;;2.35;;
26253;SDS011;53339;51.378;0.094;2022-11-02T16:48:27;13.02;;;2.40;;
26253;SDS011;53339;51.378;0.094;2022-11-02T16:53:41;11.30;;;2.60;;
26253;SDS011;53339;51.378;0.094;2022-11-02T16:56:12;9.52;;;2.30;;
26253;SDS011;53339;51.378;0.094;2022-11-02T16:58:46;15.05;;;2.38;;
26253;SDS011;53339;51.378;0.094;2022-11-02T17:01:21;12.57;;;2.38;;
26253;SDS011;53339;51.378;0.094;2022-11-02T17:03:49;11.50;;;2.05;;
26253;SDS011;53339;51.378;0.094;2022-11-02T17:06:17;7.35;;;1.88;;
26253;SDS011;53339;51.378;0.094;2022-11-02T17:08:49;10.40;;;2.85;;
26253;SDS011;53339;51.378;0.094;2022-11-02T17:11:19;10.38;;;2.28;;
26253;SDS011;53339;51.378;0.094;2022-11-02T17:13:48;9.57;;;2.17;;
26253;SDS011;53339;51.378;0.094;2022-11-02T17:16:20;11.75;;;1.80;;
26253;SDS011;53339;51.378;0.094;2022-11-02T17:18:47;10.10;;;2.65;;
26253;SDS011;53339;51.378;0.094;2022-11-02T17:21:19;9.70;;;2.00;;
26253;SDS011;53339;51.378;0.094;2022-11-02T17:23:49;15.18;;;2.53;;
26253;SDS011;53339;51.378;0.094;2022-11-02T17:28:49;13.55;;;2.20;;
26253;SDS011;53339;51.378;0.094;2022-11-02T17:31:17;12.88;;;2.38;;
26253;SDS011;53339;51.378;0.094;2022-11-02T17:33:47;11.05;;;2.97;;
26253;SDS011;53339;51.378;0.094;2022-11-02T17:36:16;11.68;;;2.67;;
26253;SDS011;53339;51.378;0.094;2022-11-02T17:38:44;13.77;;;1.88;;
26253;SDS011;53339;51.378;0.094;2022-11-02T17:41:14;12.13;;;2.63;;
26253;SDS011;53339;51.378;0.094;2022-11-02T17:44:02;12.38;;;2.13;;
26253;SDS011;53339;51.378;0.094;2022-11-02T17:46:30;14.98;;;2.67;;
26253;SDS011;53339;51.378;0.094;2022-11-02T17:48:58;9.52;;;2.15;;
26253;SDS011;53339;51.378;0.094;2022-11-02T17:51:26;6.10;;;2.40;;
26253;SDS011;53339;51.378;0.094;2022-11-02T17:53:53;12.85;;;2.28;;
26253;SDS011;53339;51.378;0.094;2022-11-02T17:56:21;15.68;;;3.05;;
26253;SDS011;53339;51.378;0.094;2022-11-02T17:58:48;8.23;;;2.30;;
26253;SDS011;53339;51.378;0.094;2022-11-02T18:01:16;8.88;;;2.50;;
26253;SDS011;53339;51.378;0.094;2022-11-02T18:03:44;9.50;;;2.95;;
26253;SDS011;53339;51.378;0.094;2022-11-02T18:06:11;9.70;;;2.83;;
26253;SDS011;53339;51.378;0.094;2022-11-02T18:08:39;13.25;;;2.80;;
26253;SDS011;53339;51.378;0.094;2022-11-02T18:11:25;15.52;;;2.75;;
26253;SDS011;53339;51.378;0.094;2022-11-02T18:13:52;9.38;;;2.53;;
26253;SDS011;53339;51.378;0.094;2022-11-02T18:16:20;10.65;;;2.17;;
26253;SDS011;53339;51.378;0.094;2022-11-02T18:18:48;14.50;;;3.00;;
26253;SDS011;53339;51.378;0.094;2022-11-02T18:21:15;7.20;;;1.98;;
26253;SDS011;53339;51.378;0.094;2022-11-02T18:23:43;11.38;;;3.28;;
26253;SDS011;53339;51.378;0.094;2022-11-02T18:26:11;9.55;;;2.38;;
26253;SDS011;53339;51.378;0.094;2022-11-02T18:28:38;9.50;;;2.17;;
26253;SDS011;53339;51.378;0.094;2022-11-02T18:31:07;8.23;;;2.20;;
26253;SDS011;53339;51.378;0.094;2022-11-02T18:33:35;13.20;;;2.90;;
26253;SDS011;53339;51.378;0.094;2022-11-02T18:36:06;12.10;;;2.08;;
26253;SDS011;53339;51.378;0.094;2022-11-02T18:38:35;8.50;;;1.92;;
26253;SDS011;53339;51.378;0.094;2022-11-02T18:41:06;11.55;;;2.60;;
26253;SDS011;53339;51.378;0.094;2022-11-02T18:43:56;11.55;;;2.45;;